Time;durP1;ratioP1;P1;durP2;ratioP2;P2;SDS_P1;SDS_P2;PMS_P1;PMS_P2;Temp;Humidity;BMP_temperature;BMP_pressure;BME280_temperature;BME280_humidity;BME280_pressure;Samples;Min_cycle;Max_cycle;Signal;HPM_P1;HPM_P2
2023/04/29 00:01:58;;;;;;;15.10;10.17;;;;;;;8.80;47.45;100320.69;5014747;28;20207;-67
2023/04/29 00:04:29;;;;;;;14.20;9.53;;;;;;;8.79;48.32;100320.69;5015369;28;20671;-68
2023/04/29 00:06:58;;;;;;;11.83;9.43;;;;;;;8.70;49.08;100317.25;5015210;28;20203;-71
2023/04/29 00:09:25;;;;;;;15.67;10.07;;;;;;;8.67;48.17;100317.25;5015013;28;20258;-74
2023/04/29 00:11:56;;;;;;;15.37;9.87;;;;;;;8.66;48.85;100319.84;5015020;28;20650;-70
2023/04/29 00:14:24;;;;;;;13.50;9.80;;;;;;;8.63;48.59;100312.97;5014839;28;20216;-69
2023/04/29 00:16:52;;;;;;;13.13;9.50;;;;;;;8.64;49.22;100313.84;5014867;28;20624;-72
2023/04/29 00:19:22;;;;;;;14.33;10.10;;;;;;;8.65;48.53;100321.56;5014679;28;20213;-68
2023/04/29 00:21:51;;;;;;;14.17;9.33;;;;;;;8.63;48.77;100315.53;5014641;28;20285;-69
2023/04/29 00:24:19;;;;;;;13.33;10.23;;;;;;;8.59;48.94;100316.41;5014347;28;20722;-70
2023/04/29 00:26:47;;;;;;;14.43;9.60;;;;;;;8.56;49.23;100316.41;5014701;28;20212;-69
2023/04/29 00:29:15;;;;;;;15.33;11.30;;;;;;;8.46;49.42;100315.50;5014371;28;20204;-69
2023/04/29 00:31:45;;;;;;;15.00;10.53;;;;;;;8.43;48.97;100306.94;5014308;28;20207;-70
2023/04/29 00:34:13;;;;;;;16.93;9.60;;;;;;;8.46;50.04;100305.25;5014577;28;20682;-68
2023/04/29 00:36:42;;;;;;;13.57;10.97;;;;;;;8.45;49.77;100307.81;5014764;28;20721;-69
2023/04/29 00:39:10;;;;;;;17.00;10.60;;;;;;;8.43;49.62;100309.50;5014658;28;20202;-67
2023/04/29 00:41:42;;;;;;;17.67;11.00;;;;;;;8.40;50.06;100306.97;5014067;28;20207;-68
2023/04/29 00:44:10;;;;;;;13.60;10.40;;;;;;;8.37;50.32;100297.53;5014359;28;20227;-69
2023/04/29 00:46:38;;;;;;;16.97;10.30;;;;;;;8.37;49.88;100291.53;5014524;28;20226;-69
2023/04/29 00:49:07;;;;;;;15.87;10.43;;;;;;;8.33;50.24;100290.66;5014472;28;20555;-73
2023/04/29 00:51:36;;;;;;;17.63;10.03;;;;;;;8.26;50.26;100295.78;5014061;28;20203;-67
2023/04/29 00:54:06;;;;;;;13.47;10.13;;;;;;;8.27;49.86;100302.63;5014272;28;20666;-66
2023/04/29 00:56:35;;;;;;;19.77;10.23;;;;;;;8.26;49.76;100293.22;5013952;28;20266;-68
2023/04/29 00:59:04;;;;;;;12.37;8.83;;;;;;;8.28;50.65;100296.63;5014039;28;20219;-68
2023/04/29 01:01:32;;;;;;;13.50;9.17;;;;;;;8.23;49.89;100279.50;5014155;28;20207;-68
2023/04/29 01:04:00;;;;;;;13.37;9.67;;;;;;;8.24;50.04;100294.06;5013717;28;20234;-71
2023/04/29 01:06:41;;;;;;;14.17;10.27;;;;;;;8.23;49.65;100282.06;5012897;28;20204;-68
2023/04/29 01:09:23;;;;;;;15.40;9.97;;;;;;;8.23;50.04;100294.91;5013771;28;20697;-70
2023/04/29 01:12:02;;;;;;;12.23;9.90;;;;;;;8.22;50.38;100290.63;5013954;28;20199;-68
2023/04/29 01:14:33;;;;;;;19.40;9.63;;;;;;;8.22;50.03;100290.63;5013835;28;20211;-69
2023/04/29 01:17:10;;;;;;;13.53;9.23;;;;;;;8.19;49.86;100288.06;5012105;28;20242;-68
2023/04/29 01:19:47;;;;;;;12.10;8.63;;;;;;;8.21;49.45;100291.50;5006253;28;20604;-68
2023/04/29 01:22:17;;;;;;;13.67;8.90;;;;;;;8.21;50.18;100288.94;5000125;28;20211;-68
2023/04/29 01:24:47;;;;;;;14.37;10.40;;;;;;;8.18;49.57;100291.50;5013513;28;20297;-70
2023/04/29 01:49:58;;;;;;;12.20;8.43;;;;;;;8.08;50.48;100296.59;5012966;28;20195;-68
2023/04/29 01:52:27;;;;;;;12.53;8.23;;;;;;;8.06;50.42;100291.44;5012926;28;20230;-68
2023/04/29 01:54:56;;;;;;;12.90;9.23;;;;;;;8.08;50.04;100286.34;5012922;28;20195;-67
2023/04/29 01:57:23;;;;;;;14.80;8.87;;;;;;;8.06;49.82;100288.88;5013029;28;20612;-68
2023/04/29 01:59:52;;;;;;;12.80;8.87;;;;;;;8.02;50.59;100288.88;5012694;28;20207;-70
2023/04/29 02:02:22;;;;;;;13.23;8.93;;;;;;;8.01;50.17;100285.44;5012659;28;20203;-69
2023/04/29 02:04:50;;;;;;;12.10;9.23;;;;;;;7.99;50.46;100285.47;5012464;28;20222;-67
2023/04/29 02:26:09;;;;;;;10.63;8.00;;;;;;;8.02;50.53;100271.75;4991786;28;20277;-72
2023/04/29 02:28:37;;;;;;;10.83;8.70;;;;;;;8.02;50.51;100274.31;5011987;28;20234;-68
2023/04/29 02:31:05;;;;;;;10.57;7.80;;;;;;;8.03;50.85;100270.94;5012101;28;20245;-69
2023/04/29 02:33:33;;;;;;;14.03;8.80;;;;;;;8.03;50.07;100272.63;5012321;28;20571;-68
2023/04/29 02:36:01;;;;;;;15.57;8.23;;;;;;;8.04;50.36;100267.50;5012393;28;20659;-67
2023/04/29 02:38:29;;;;;;;12.83;8.47;;;;;;;7.97;50.23;100260.66;5012044;28;20207;-70
2023/04/29 02:40:57;;;;;;;14.87;8.37;;;;;;;8.01;50.62;100270.06;5012115;28;20709;-66
2023/04/29 02:43:29;;;;;;;11.67;8.43;;;;;;;8.01;50.75;100266.63;5012494;28;20230;-69
2023/04/29 02:45:57;;;;;;;14.43;8.00;;;;;;;8.01;50.27;100267.50;5011714;28;20230;-68
2023/04/29 02:48:25;;;;;;;11.40;7.37;;;;;;;7.97;50.59;100260.66;5011891;28;20203;-66
2023/04/29 03:09:51;;;;;;;11.93;7.30;;;;;;;7.92;50.42;100263.22;5011494;28;20737;-65
2023/04/29 03:12:20;;;;;;;9.67;7.23;;;;;;;7.90;50.83;100251.22;5011533;28;20206;-65
2023/04/29 03:14:48;;;;;;;8.77;7.20;;;;;;;7.91;51.18;100255.50;5011065;28;20207;-66
2023/04/29 03:17:16;;;;;;;10.33;7.83;;;;;;;7.89;51.19;100258.06;5011255;28;20200;-67
2023/04/29 03:19:44;;;;;;;12.53;8.20;;;;;;;7.90;50.97;100249.50;5011320;28;20215;-66
2023/04/29 03:22:12;;;;;;;10.90;7.67;;;;;;;7.88;50.92;100253.78;5011519;28;20650;-67
2023/04/29 03:24:40;;;;;;;11.63;7.73;;;;;;;7.87;51.18;100248.63;5011280;28;20251;-67
2023/04/29 03:27:10;;;;;;;9.07;7.53;;;;;;;7.86;50.65;100252.91;5010860;28;20241;-65
2023/04/29 03:29:37;;;;;;;10.87;8.00;;;;;;;7.84;51.37;100254.63;5010694;28;20211;-65
2023/04/29 03:32:06;;;;;;;10.47;7.00;;;;;;;7.85;50.65;100250.34;5011106;28;20200;-65
2023/04/29 03:34:34;;;;;;;10.23;7.13;;;;;;;7.81;50.96;100249.50;5011375;28;20211;-68
2023/04/29 03:37:02;;;;;;;10.57;7.57;;;;;;;7.80;51.60;100252.03;5011547;28;20207;-66
2023/04/29 03:39:31;;;;;;;8.70;7.07;;;;;;;7.83;51.66;100254.63;5011606;28;20790;-66
2023/04/29 03:42:00;;;;;;;10.17;7.13;;;;;;;7.82;51.08;100261.47;5011354;28;20678;-65
2023/04/29 03:44:29;;;;;;;11.23;8.03;;;;;;;7.83;51.11;100252.03;5011087;28;20222;-67
2023/04/29 03:46:57;;;;;;;9.37;6.80;;;;;;;7.84;51.40;100253.75;5011353;28;20606;-65
2023/04/29 03:49:25;;;;;;;13.40;8.30;;;;;;;7.85;51.10;100256.34;5010820;28;20232;-66
2023/04/29 03:51:53;;;;;;;10.33;7.67;;;;;;;7.85;50.76;100255.50;5011415;28;20658;-66
2023/04/29 03:54:21;;;;;;;11.53;7.10;;;;;;;7.85;51.67;100250.34;5011327;28;20207;-65
2023/04/29 03:56:49;;;;;;;10.43;7.07;;;;;;;7.83;51.42;100252.03;5010954;28;20215;-67
2023/04/29 03:59:17;;;;;;;11.53;6.67;;;;;;;7.84;51.36;100253.75;5011074;28;20215;-68
2023/04/29 04:01:46;;;;;;;9.63;6.97;;;;;;;7.85;51.05;100255.50;5010633;28;20575;-65
2023/04/29 04:04:14;;;;;;;8.90;6.77;;;;;;;7.88;51.31;100252.91;5010852;28;20321;-65
2023/04/29 04:06:43;;;;;;;10.17;7.07;;;;;;;7.92;51.00;100262.34;5010828;28;20218;-67
2023/04/29 04:09:11;;;;;;;11.17;6.67;;;;;;;7.94;51.23;100245.22;5011244;28;20592;-70
2023/04/29 04:11:40;;;;;;;10.37;6.43;;;;;;;8.02;51.17;100246.09;5010996;28;20211;-67
2023/04/29 04:14:08;;;;;;;10.57;7.33;;;;;;;8.03;51.06;100255.53;5011037;28;20235;-66
2023/04/29 04:16:36;;;;;;;10.17;6.77;;;;;;;8.06;50.86;100245.25;5010666;28;20211;-67
2023/04/29 04:19:06;;;;;;;8.53;6.27;;;;;;;8.09;50.73;100249.53;5010882;28;20644;-66
2023/04/29 04:21:35;;;;;;;9.30;6.63;;;;;;;8.09;50.41;100240.13;5010377;28;20211;-66
2023/04/29 04:24:03;;;;;;;8.30;6.40;;;;;;;8.16;50.65;100246.13;5010640;28;20219;-67
2023/04/29 04:26:31;;;;;;;11.17;6.57;;;;;;;8.21;51.25;100247.88;5010615;28;20606;-67
2023/04/29 04:28:59;;;;;;;10.10;6.60;;;;;;;8.21;50.60;100244.41;5010440;28;20199;-65
2023/04/29 04:31:27;;;;;;;9.87;5.97;;;;;;;8.22;50.62;100246.16;5010787;28;20211;-64
2023/04/29 04:33:56;;;;;;;11.10;6.30;;;;;;;8.24;50.55;100247.00;5010582;28;20269;-65
2023/04/29 04:36:25;;;;;;;8.10;6.03;;;;;;;8.33;49.73;100251.31;5010651;28;20200;-66
2023/04/29 04:38:53;;;;;;;8.10;5.80;;;;;;;8.39;50.24;100246.19;5010359;28;20250;-68
2023/04/29 04:41:21;;;;;;;8.23;6.00;;;;;;;8.44;49.18;100242.78;5012096;28;20207;-66
2023/04/29 04:43:49;;;;;;;11.53;6.37;;;;;;;8.52;49.14;100239.34;5013941;28;20721;-67
2023/04/29 04:46:17;;;;;;;9.73;6.13;;;;;;;8.59;49.96;100231.66;5013682;28;20219;-68
2023/04/29 04:48:45;;;;;;;8.93;5.63;;;;;;;8.70;49.18;100229.91;5013985;28;20207;-66
2023/04/29 04:51:14;;;;;;;10.37;6.17;;;;;;;8.86;48.12;100230.75;5013774;28;20203;-66
2023/04/29 04:53:43;;;;;;;6.90;5.77;;;;;;;9.03;47.60;100232.44;5014002;28;20215;-67
2023/04/29 04:56:11;;;;;;;8.57;5.80;;;;;;;9.17;47.44;100228.97;5014037;28;20655;-66
2023/04/29 04:58:39;;;;;;;7.63;5.57;;;;;;;9.31;47.57;100220.34;5014006;28;20261;-67
2023/04/29 05:01:07;;;;;;;8.43;5.80;;;;;;;9.44;47.07;100220.31;5014060;28;20203;-66
2023/04/29 05:03:35;;;;;;;8.00;5.60;;;;;;;9.52;46.60;100227.13;5000207;28;20215;-67
2023/04/29 05:06:04;;;;;;;10.50;5.80;;;;;;;9.60;46.45;100225.38;5013661;28;20738;-66
2023/04/29 05:08:32;;;;;;;8.67;5.70;;;;;;;9.78;46.19;100224.44;5013531;28;20253;-65
2023/04/29 05:11:01;;;;;;;8.60;5.73;;;;;;;9.93;45.42;100224.34;5013773;28;20257;-68
2023/04/29 05:13:29;;;;;;;7.50;5.17;;;;;;;10.10;45.56;100225.09;5013661;28;20658;-67
2023/04/29 05:15:57;;;;;;;13.47;6.20;;;;;;;10.24;44.88;100224.16;5013583;28;20203;-67
2023/04/29 05:18:25;;;;;;;7.07;4.87;;;;;;;10.35;44.95;100220.66;5013134;28;20266;-68
2023/04/29 05:20:53;;;;;;;10.33;5.60;;;;;;;10.41;44.47;100227.47;5013594;28;20644;-66
2023/04/29 05:23:21;;;;;;;9.37;5.80;;;;;;;10.46;44.37;100217.16;5012215;28;20215;-69
2023/04/29 05:25:49;;;;;;;9.43;5.60;;;;;;;10.61;44.21;100220.44;5013115;28;20223;-67
2023/04/29 05:28:19;;;;;;;9.07;5.63;;;;;;;10.98;43.93;100217.50;5013171;28;20670;-67
2023/04/29 05:30:50;;;;;;;10.10;5.63;;;;;;;11.55;43.44;100220.25;5013100;28;20207;-67
2023/04/29 05:33:19;;;;;;;11.60;5.70;;;;;;;12.19;41.36;100215.97;5013108;28;20290;-70
2023/04/29 05:35:50;;;;;;;6.17;4.70;;;;;;;12.68;40.42;100219.47;5012953;28;20295;-69
2023/04/29 05:38:18;;;;;;;7.47;5.43;;;;;;;13.09;39.01;100204.94;5013169;28;20202;-71
2023/04/29 05:40:48;;;;;;;9.97;5.47;;;;;;;13.62;38.04;100201.28;5012914;28;20207;-72
2023/04/29 05:43:17;;;;;;;8.37;5.50;;;;;;;14.36;36.96;100200.47;5013100;28;20207;-68
2023/04/29 05:45:48;;;;;;;8.57;5.63;;;;;;;15.12;35.22;100209.75;5013033;28;20570;-70
2023/04/29 05:48:17;;;;;;;8.97;4.90;;;;;;;16.02;33.76;100207.13;5012878;28;20204;-68
2023/04/29 05:50:47;;;;;;;5.87;4.70;;;;;;;17.01;32.23;100194.28;5013177;28;20247;-68
2023/04/29 05:53:15;;;;;;;6.30;4.70;;;;;;;17.86;30.43;100196.34;5012448;28;20235;-68
2023/04/29 05:55:49;;;;;;;8.48;5.82;;;;;;;18.55;29.57;100190.06;5012823;28;20245;-69
2023/04/29 05:58:18;;;;;;;5.50;4.60;;;;;;;19.35;28.07;100190.09;5012890;28;20629;-69
2023/04/29 06:00:51;;;;;;;9.77;5.18;;;;;;;19.97;27.22;100193.34;5012950;28;20207;-70
2023/04/29 06:03:19;;;;;;;7.35;4.95;;;;;;;20.50;26.43;100195.09;5012960;28;20601;-72
2023/04/29 06:05:54;;;;;;;8.35;5.07;;;;;;;20.67;25.73;100189.88;5012474;28;20234;-69
2023/04/29 06:08:26;;;;;;;8.25;4.13;;;;;;;20.99;25.32;100197.84;5012296;28;20205;-68
2023/04/29 06:10:57;;;;;;;6.65;4.78;;;;;;;21.16;24.93;100189.91;5012715;28;20622;-71
2023/04/29 06:13:26;;;;;;;8.10;4.72;;;;;;;21.18;24.79;100188.09;5012596;28;20677;-68
2023/04/29 06:15:56;;;;;;;7.82;4.80;;;;;;;21.48;24.68;100191.78;5012382;28;20629;-69
2023/04/29 06:18:26;;;;;;;9.25;4.75;;;;;;;21.83;24.08;100184.59;5012074;28;20207;-69
2023/04/29 06:20:54;;;;;;;4.70;4.00;;;;;;;22.13;23.61;100188.13;5012436;28;20686;-67
2023/04/29 06:23:22;;;;;;;8.23;5.00;;;;;;;21.99;23.88;100189.84;5012105;28;20278;-69
2023/04/29 06:25:51;;;;;;;5.13;4.00;;;;;;;22.00;23.65;100181.88;5012229;28;20634;-69
2023/04/29 06:28:20;;;;;;;6.43;4.72;;;;;;;21.91;23.50;100191.13;5012021;28;20206;-69
2023/04/29 06:30:48;;;;;;;6.75;4.30;;;;;;;21.97;23.84;100189.91;5011929;28;20677;-69
2023/04/29 06:33:18;;;;;;;6.13;4.32;;;;;;;22.46;23.72;100183.63;5012120;28;20240;-68
2023/04/29 06:35:46;;;;;;;6.95;3.75;;;;;;;23.05;22.94;100190.63;5011891;28;20203;-69
2023/04/29 06:38:14;;;;;;;10.95;4.45;;;;;;;23.37;22.03;100188.63;5012251;28;20542;-68
2023/04/29 06:40:42;;;;;;;6.40;4.07;;;;;;;23.64;21.85;100179.94;5012186;28;20590;-69
2023/04/29 06:43:10;;;;;;;5.57;4.05;;;;;;;23.82;21.30;100188.47;5012174;28;20646;-69
2023/04/29 06:45:38;;;;;;;8.18;3.92;;;;;;;24.15;21.65;100184.56;5011694;28;20273;-69
2023/04/29 06:48:06;;;;;;;7.80;4.22;;;;;;;24.76;21.11;100177.88;5011914;28;20681;-67
2023/04/29 06:50:36;;;;;;;7.28;4.38;;;;;;;25.15;19.99;100181.34;5011791;28;20203;-68
2023/04/29 06:53:04;;;;;;;5.18;3.80;;;;;;;25.35;20.21;100177.31;5011502;28;20204;-68
2023/04/29 06:55:32;;;;;;;6.00;3.88;;;;;;;25.32;19.98;100172.25;5011924;28;20590;-69
2023/04/29 06:58:00;;;;;;;5.93;4.13;;;;;;;25.21;20.05;100175.66;5011481;28;20242;-71
2023/04/29 07:00:28;;;;;;;5.53;3.70;;;;;;;24.48;20.25;100181.53;5011403;28;20263;-70
2023/04/29 07:02:56;;;;;;;6.47;3.58;;;;;;;23.95;21.42;100184.09;5011240;28;20215;-70
2023/04/29 07:05:24;;;;;;;5.43;3.78;;;;;;;23.80;21.32;100179.84;5011379;28;20206;-69
2023/04/29 07:07:53;;;;;;;4.35;3.75;;;;;;;23.19;22.10;100175.78;5011328;28;20251;-68
2023/04/29 07:10:21;;;;;;;4.93;3.78;;;;;;;22.42;23.07;100175.09;5011336;28;20208;-68
2023/04/29 07:12:49;;;;;;;4.13;3.75;;;;;;;21.41;23.97;100180.78;5011349;28;20211;-68
2023/04/29 07:15:17;;;;;;;5.45;3.92;;;;;;;20.90;24.95;100172.97;5011267;28;20207;-68
2023/04/29 07:17:46;;;;;;;4.90;3.60;;;;;;;20.85;25.17;100179.38;5011561;28;20262;-72
2023/04/29 07:20:14;;;;;;;5.47;3.72;;;;;;;20.90;25.31;100179.97;5011313;28;20265;-68
2023/04/29 07:22:42;;;;;;;9.75;4.22;;;;;;;21.26;24.60;100179.81;5011477;28;20226;-71
2023/04/29 07:25:11;;;;;;;6.00;3.25;;;;;;;21.42;24.47;100177.22;5011275;28;20662;-68
2023/04/29 07:27:40;;;;;;;7.00;3.00;;;;;;;21.32;24.54;100176.00;5011067;28;20239;-68
2023/04/29 07:30:09;;;;;;;4.95;3.40;;;;;;;20.82;25.12;100176.91;5010897;28;20582;-68
2023/04/29 07:32:37;;;;;;;3.83;3.13;;;;;;;20.74;25.37;100178.16;5010915;28;20700;-69
2023/04/29 07:35:06;;;;;;;9.90;4.13;;;;;;;21.30;25.13;100175.25;5011248;28;20702;-69
2023/04/29 07:37:34;;;;;;;4.15;3.33;;;;;;;22.05;24.28;100174.56;5010977;28;20203;-67
2023/04/29 07:40:04;;;;;;;5.07;3.20;;;;;;;22.36;23.12;100175.47;5011224;28;20210;-68
2023/04/29 07:42:33;;;;;;;5.63;3.33;;;;;;;22.45;22.58;100168.81;5011164;28;20663;-69
2023/04/29 07:45:01;;;;;;;7.03;2.97;;;;;;;22.70;22.53;100171.69;5010764;28;20214;-72
2023/04/29 07:47:29;;;;;;;3.95;2.75;;;;;;;23.07;22.19;100170.34;5010837;28;20226;-68
2023/04/29 07:49:58;;;;;;;4.88;2.42;;;;;;;23.11;21.78;100163.94;4996048;28;20211;-69
2023/04/29 07:52:26;;;;;;;5.88;3.03;;;;;;;23.27;21.89;100165.63;5011217;28;20643;-67
2023/04/29 07:54:55;;;;;;;5.25;2.85;;;;;;;23.51;21.55;100168.50;5010849;28;20206;-70
2023/04/29 07:57:23;;;;;;;6.07;2.75;;;;;;;23.76;21.05;100159.94;5011269;28;20677;-69
2023/04/29 07:59:53;;;;;;;6.60;2.92;;;;;;;24.02;21.19;100163.50;5010711;28;20233;-68
2023/04/29 08:02:21;;;;;;;7.00;3.40;;;;;;;24.13;20.92;100163.63;5011140;28;20589;-67
2023/04/29 08:04:50;;;;;;;6.30;2.70;;;;;;;24.22;20.76;100164.81;5011346;28;20211;-68
2023/04/29 08:07:19;;;;;;;3.22;2.80;;;;;;;23.75;20.84;100171.38;5010622;28;20219;-68
2023/04/29 08:09:47;;;;;;;2.83;2.40;;;;;;;23.29;21.72;100171.63;5010791;28;20266;-67
2023/04/29 08:12:15;;;;;;;3.63;2.78;;;;;;;23.30;22.06;100173.31;5010914;28;20289;-68
2023/04/29 08:14:43;;;;;;;5.22;2.95;;;;;;;22.82;22.06;100175.34;5011495;28;20219;-68
2023/04/29 08:17:12;;;;;;;5.15;2.88;;;;;;;22.34;23.10;100167.66;5001182;28;20568;-69
2023/04/29 08:19:40;;;;;;;3.53;3.08;;;;;;;21.99;23.22;100174.94;5014357;28;20219;-68
2023/04/29 08:22:10;;;;;;;3.95;2.55;;;;;;;21.98;23.47;100167.13;5014146;28;20203;-69
2023/04/29 08:24:38;;;;;;;3.03;2.67;;;;;;;21.97;23.59;100161.03;5014194;28;20258;-68
2023/04/29 08:27:06;;;;;;;3.35;2.53;;;;;;;22.11;23.88;100162.88;5014162;28;20242;-69
2023/04/29 08:29:34;;;;;;;6.57;2.70;;;;;;;22.32;23.11;100150.34;5014148;28;20219;-69
2023/04/29 08:32:03;;;;;;;4.75;2.72;;;;;;;22.59;23.34;100169.69;5014447;28;20689;-68
2023/04/29 08:34:32;;;;;;;5.07;2.65;;;;;;;22.79;23.32;100162.41;5014122;28;20293;-69
2023/04/29 08:37:01;;;;;;;5.15;3.05;;;;;;;22.69;23.10;100163.91;5014504;28;20246;-70
2023/04/29 08:39:29;;;;;;;4.65;2.72;;;;;;;22.35;23.58;100160.63;5013810;28;20216;-67
2023/04/29 08:41:57;;;;;;;4.35;2.75;;;;;;;21.86;23.63;100163.44;5014009;28;20709;-68
2023/04/29 08:44:26;;;;;;;4.35;3.03;;;;;;;21.06;24.71;100161.66;5013704;28;20203;-69
2023/04/29 08:46:55;;;;;;;2.92;2.40;;;;;;;20.33;25.69;100155.84;5014015;28;20654;-68
2023/04/29 08:49:23;;;;;;;5.22;2.90;;;;;;;19.59;26.66;100164.59;5013871;28;20212;-68
2023/04/29 08:51:53;;;;;;;4.70;3.35;;;;;;;19.15;27.46;100159.66;5013965;28;20207;-68
2023/04/29 08:54:21;;;;;;;5.63;2.95;;;;;;;18.73;28.20;100165.81;5013596;28;20215;-69
2023/04/29 08:56:51;;;;;;;4.43;2.78;;;;;;;18.52;28.75;100158.88;5013839;28;20234;-68
2023/04/29 08:59:20;;;;;;;4.80;3.15;;;;;;;18.56;28.92;100169.16;5013537;28;20234;-68
2023/04/29 09:01:52;;;;;;;6.65;3.00;;;;;;;18.66;28.35;100156.53;5013646;28;20227;-69
2023/04/29 09:04:31;;;;;;;5.78;3.15;;;;;;;18.85;28.01;100161.00;5013511;28;20207;-68
2023/04/29 09:07:01;;;;;;;3.25;2.80;;;;;;;18.88;27.64;100163.47;5013389;28;20235;-67
2023/04/29 09:09:31;;;;;;;4.22;2.80;;;;;;;18.89;27.70;100154.72;5013543;28;20195;-70
2023/04/29 09:11:59;;;;;;;6.25;3.33;;;;;;;19.13;27.49;100147.56;5013279;28;20200;-68
2023/04/29 09:14:32;;;;;;;3.45;2.47;;;;;;;19.58;27.64;100149.81;5013652;28;20253;-68
2023/04/29 09:17:00;;;;;;;6.07;2.97;;;;;;;20.48;26.43;100141.97;5013344;28;20207;-68
2023/04/29 09:19:32;;;;;;;5.28;3.03;;;;;;;21.42;24.99;100146.59;5013164;28;20215;-68
2023/04/29 09:22:03;;;;;;;5.15;2.80;;;;;;;21.93;24.28;100141.16;5012907;28;20207;-69
2023/04/29 09:24:32;;;;;;;4.95;3.00;;;;;;;22.11;23.62;100147.16;5013105;28;20266;-68
2023/04/29 09:27:00;;;;;;;6.40;2.90;;;;;;;21.55;24.13;100144.19;5012263;28;20239;-69
2023/04/29 09:29:29;;;;;;;5.20;2.85;;;;;;;22.09;24.19;100149.88;5013008;28;20211;-68
2023/04/29 09:31:57;;;;;;;6.13;3.28;;;;;;;22.97;23.16;100137.66;5012938;28;20199;-68
2023/04/29 09:34:34;;;;;;;4.25;2.90;;;;;;;22.87;23.07;100136.53;5013100;28;20203;-70
2023/04/29 09:37:03;;;;;;;3.60;2.97;;;;;;;23.25;22.62;100152.59;5013049;28;20211;-71
2023/04/29 09:39:39;;;;;;;5.43;3.20;;;;;;;23.75;22.31;100134.53;5012728;28;20253;-69
2023/04/29 09:42:08;;;;;;;3.58;3.00;;;;;;;24.52;21.55;100140.84;5013044;28;20670;-67
2023/04/29 09:44:36;;;;;;;3.33;2.40;;;;;;;24.47;20.81;100129.81;5012903;28;20669;-67
2023/04/29 09:47:06;;;;;;;3.33;3.03;;;;;;;24.54;21.14;100129.28;5012763;28;20215;-68
2023/04/29 09:49:37;;;;;;;5.07;3.00;;;;;;;25.11;21.80;100124.50;5012877;28;20289;-69
2023/04/29 09:52:09;;;;;;;3.95;2.78;;;;;;;25.79;20.34;100116.09;5012548;28;20214;-69
2023/04/29 09:54:41;;;;;;;5.25;3.05;;;;;;;26.53;19.77;100121.13;5012468;28;20199;-69
2023/04/29 09:57:11;;;;;;;3.13;2.60;;;;;;;26.92;18.96;100115.41;5012807;28;20211;-70
2023/04/29 09:59:40;;;;;;;3.45;2.80;;;;;;;26.82;18.98;100119.72;5012812;28;20199;-70
2023/04/29 10:02:15;;;;;;;4.25;2.88;;;;;;;26.86;18.82;100105.28;5012508;28;20195;-67
2023/04/29 10:04:45;;;;;;;3.47;3.17;;;;;;;27.21;18.75;100114.91;5012330;28;20206;-67
2023/04/29 10:07:16;;;;;;;5.00;2.55;;;;;;;27.24;17.73;100101.44;5012335;28;20223;-68
2023/04/29 10:09:46;;;;;;;3.92;3.00;;;;;;;27.04;18.01;100105.63;5012456;28;20612;-68
2023/04/29 10:12:16;;;;;;;4.32;3.00;;;;;;;27.38;18.59;100101.16;5012386;28;20204;-68
2023/04/29 10:14:50;;;;;;;4.68;2.78;;;;;;;27.66;17.97;100099.75;5012561;28;20647;-68
2023/04/29 10:17:24;;;;;;;4.30;2.95;;;;;;;28.10;17.47;100092.59;5012312;28;20694;-68
2023/04/29 10:19:58;;;;;;;3.33;2.95;;;;;;;28.23;17.59;100086.25;5012046;28;20199;-67
2023/04/29 10:22:36;;;;;;;3.65;2.65;;;;;;;28.20;17.26;100087.34;5012368;28;20265;-69
2023/04/29 10:25:07;;;;;;;4.78;2.78;;;;;;;28.86;17.03;100087.84;5012019;28;20577;-67
2023/04/29 10:27:37;;;;;;;4.57;2.53;;;;;;;29.64;16.64;100088.06;5012011;28;20242;-68
2023/04/29 10:30:10;;;;;;;4.72;2.78;;;;;;;29.51;15.83;100079.53;5011877;28;20203;-69
2023/04/29 10:32:40;;;;;;;3.83;2.78;;;;;;;29.14;16.39;100069.56;5011775;28;20257;-67
2023/04/29 10:35:21;;;;;;;7.88;2.80;;;;;;;29.42;16.63;100072.38;5012305;28;20237;-67
2023/04/29 10:37:52;;;;;;;5.63;3.00;;;;;;;29.10;15.98;100070.81;5011182;28;20245;-68
2023/04/29 10:40:28;;;;;;;5.05;2.65;;;;;;;28.81;16.62;100076.81;5011764;28;20218;-69
2023/04/29 10:42:56;;;;;;;5.38;2.67;;;;;;;27.51;17.42;100073.72;5012068;28;20261;-69
2023/04/29 10:45:27;;;;;;;5.60;3.08;;;;;;;26.74;18.56;100082.47;5011981;28;20219;-68
2023/04/29 10:48:15;;;;;;;4.60;3.00;;;;;;;27.11;18.39;100080.41;5011971;28;20859;-69
2023/04/29 10:51:04;;;;;;;4.30;2.53;;;;;;;27.44;18.44;100074.22;5011633;28;20678;-68
2023/04/29 10:53:34;;;;;;;3.83;2.88;;;;;;;27.77;18.02;100064.50;5011792;28;20282;-67
2023/04/29 10:56:09;;;;;;;2.75;2.45;;;;;;;27.55;17.71;100073.31;5011809;28;20253;-68
2023/04/29 10:58:43;;;;;;;4.40;2.50;;;;;;;27.89;18.04;100058.16;5011782;28;20202;-70
2023/04/29 11:01:13;;;;;;;4.47;2.38;;;;;;;28.21;18.11;100062.56;5011186;28;20211;-68
2023/04/29 11:03:58;;;;;;;5.57;2.67;;;;;;;27.70;18.38;100063.28;5011754;28;20306;-67
2023/04/29 11:06:40;;;;;;;5.07;3.10;;;;;;;27.85;18.18;100059.38;5011390;28;20211;-69
2023/04/29 11:09:13;;;;;;;4.53;2.67;;;;;;;28.07;18.20;100049.63;5011287;28;20221;-68
2023/04/29 11:11:46;;;;;;;4.53;2.50;;;;;;;28.41;17.86;100060.88;5011499;28;20200;-66
2023/04/29 11:14:15;;;;;;;4.65;2.58;;;;;;;28.04;17.65;100052.53;5011269;28;20682;-73
2023/04/29 11:16:48;;;;;;;2.90;2.38;;;;;;;27.17;18.63;100052.63;5011566;28;20659;-69
2023/04/29 11:19:17;;;;;;;4.60;2.53;;;;;;;26.83;19.69;100060.56;5011054;28;20286;-68
2023/04/29 11:21:46;;;;;;;6.03;2.88;;;;;;;26.95;19.39;100050.81;5011046;28;20208;-70
2023/04/29 11:24:16;;;;;;;8.05;2.92;;;;;;;27.04;18.99;100049.25;5011462;28;20203;-69
2023/04/29 11:26:45;;;;;;;5.30;2.70;;;;;;;26.70;19.24;100058.06;5010786;28;20250;-67
2023/04/29 11:29:14;;;;;;;4.35;2.90;;;;;;;25.96;19.40;100054.13;5010844;28;20424;-68
2023/04/29 11:31:42;;;;;;;2.90;2.47;;;;;;;25.12;20.78;100049.75;5010926;28;20214;-69
2023/04/29 11:34:15;;;;;;;3.75;2.60;;;;;;;24.52;21.80;100046.88;5011128;28;20556;-68
2023/04/29 11:36:45;;;;;;;5.55;2.85;;;;;;;23.81;22.34;100047.31;5011287;28;20207;-69
2023/04/29 11:39:18;;;;;;;3.30;2.58;;;;;;;23.34;23.12;100052.09;5011135;28;20203;-68
2023/04/29 11:41:46;;;;;;;4.18;2.50;;;;;;;23.00;23.68;100055.16;5010853;28;20218;-68
2023/04/29 11:44:14;;;;;;;6.03;2.50;;;;;;;22.71;24.09;100051.69;5011069;28;20670;-69
2023/04/29 11:46:42;;;;;;;5.85;3.38;;;;;;;22.23;24.26;100048.50;5010922;28;20219;-67
2023/04/29 11:49:10;;;;;;;4.60;2.92;;;;;;;21.73;25.02;100042.66;5011493;28;20682;-68
2023/04/29 11:51:38;;;;;;;7.03;3.05;;;;;;;21.50;25.53;100037.84;5015280;28;20658;-69
2023/04/29 11:54:07;;;;;;;6.68;3.05;;;;;;;21.13;26.34;100043.34;5015477;28;20203;-69
2023/04/29 11:56:37;;;;;;;4.85;2.83;;;;;;;20.68;26.91;100042.31;5015153;28;20549;-67
2023/04/29 11:59:07;;;;;;;3.42;2.63;;;;;;;20.30;27.53;100039.06;5015099;28;20669;-67
2023/04/29 12:01:36;;;;;;;3.88;2.50;;;;;;;20.27;28.08;100042.69;5014678;28;20211;-69
2023/04/29 12:04:05;;;;;;;4.07;2.80;;;;;;;20.31;28.24;100029.44;5014974;28;20215;-68
2023/04/29 12:06:34;;;;;;;3.15;2.85;;;;;;;20.34;28.22;100026.66;5014525;28;20203;-67
2023/04/29 12:09:03;;;;;;;3.83;2.70;;;;;;;20.32;27.90;100031.13;5014969;28;20621;-68
2023/04/29 12:11:31;;;;;;;4.28;2.60;;;;;;;20.36;28.08;100025.66;5014413;28;20211;-67
2023/04/29 12:14:02;;;;;;;4.32;2.80;;;;;;;20.46;28.52;100020.78;5014600;28;20199;-66
2023/04/29 12:16:31;;;;;;;4.50;2.63;;;;;;;20.50;28.04;100027.56;5014832;28;20553;-71
2023/04/29 12:18:59;;;;;;;4.03;3.40;;;;;;;20.57;28.47;100020.25;5014757;28;20554;-67
2023/04/29 12:21:27;;;;;;;3.83;2.90;;;;;;;20.50;28.26;100024.94;5014485;28;20214;-68
2023/04/29 12:23:59;;;;;;;4.82;3.30;;;;;;;20.41;28.56;100017.56;5014215;28;20203;-69
2023/04/29 12:26:29;;;;;;;6.18;3.05;;;;;;;20.23;28.43;100019.38;5014399;28;20239;-68
2023/04/29 12:28:58;;;;;;;5.07;3.00;;;;;;;20.09;28.77;100012.22;5014151;28;20214;-72
2023/04/29 12:31:35;;;;;;;4.25;2.85;;;;;;;20.07;29.18;100019.31;5014060;28;20215;-68
2023/04/29 12:34:03;;;;;;;4.32;2.60;;;;;;;19.97;29.28;100018.09;5014493;28;20211;-68
2023/04/29 12:36:36;;;;;;;4.40;2.90;;;;;;;19.93;29.13;100011.34;5014202;28;20207;-69